Terminal Aerodrome Forecast
Issued by NWS

Home | Current Version | Previous Version | Text Only | Print | Product List | Glossary On
Versions: 1 2 3 4 5 6 7 8 9 10 11 12 13 14
000
FTUS45 KSLC 162320
TAFPVU
TAF
KPVU 162320Z 1700/1724 31010KT P6SM SCT100 BKN200
     FM170300 VRB03KT P6SM SKC
     FM172100 20008KT P6SM SCT100
      AMD LTD TO CLD VIS AND WIND=

USA.gov is the U.S. government's official web portal to all federal, state and local government web resources and services.